Standish, MI (48658)

5:16 AM EST on December 04, 2016 (GMT -0500)
South Main Street | | Change Station
Active Advisory: Special Statement

Elev 610 ft 44.05 °N, 83.85 °W | Updated 4 minutes ago

Overcast
Overcast
33.6 °F
Feels Like 34 °F
N
1.2
Wind Variable Wind from WSW
Gusts 2.5 mph

Today
High -- | Low -- °F
--% Chance of Precip.
Yesterday
High -- | Low -- °F
Precip. -- in
Pressure 30.24 in
Visibility 10.0 miles
Clouds Overcast 3600 ft
Windchill 34 °F
Dew Point 30 °F
Humidity 87%
Rainfall 0.00 in
Snow Depth Not available.
7:54 AM 4:58 PM
Waxing Crescent, 21% visible
METAR KIKW 040953Z AUTO 00000KT 10SM OVC036 01/M02 A3024 RMK AO2 T00131016
Pressure 30.24 in
Visibility 10.0 miles
Clouds Overcast 3600 ft
Windchill 34 °F
Dew Point 30 °F
Humidity 87%
Rainfall 0.00 in
Snow Depth Not available.
7:54 AM 4:58 PM
Waxing Crescent, 21% visible
METAR KIKW 040953Z AUTO 00000KT 10SM OVC036 01/M02 A3024 RMK AO2 T00131016

10-Day Weather Forecast

Almanac

Astronomy

Dec. 04, 2016 Rise Set
Actual Time
Civil Twilight
Nautical Twilight
Astronomical Twilight
Moon
Length of Visible Light
Length of Day
Tomorrow will be .
, % of the Moon is Illuminated

Today's Extremes

State Highs State Lows

Community

WunderPhotos

Upload Photos

1,955,591 photos uploaded!

WunderBlog® & News

Nearby

Air Quality

  Air Quality AQ Index Pollutant
Not available.

Snow Depth

Station Depth Elevation

Earthquake Activity

City Distance Mag. Time & Date
Minimum magnitude displayed is 2.5.

Coastal Water Temperatures

Place Temperature

Stations

Nearby Weather Stations

Station Location Temp. Windchill Dew Point Humidity Wind Precip. Elev Updated Type
                   

Watches & Warnings

Special Statement
Issued: 3:04 AM EST Dec. 4, 2016 – National Weather Service

... Accumulating snow expected this afternoon and evening...

A mixture of rain and snow will spread rapidly northeast this
afternoon... becoming all snow as it does so. Periods of snow will
continue into this evening before tapering off during the early
morning hours on Monday. Total snow accumulation of one to three
inches is expected... with the highest amounts centered across
interior areas.

Motorists are urged to use caution this afternoon and tonight as
slushy snow accumulations are expected... especially on secondary
and untreated Road surfaces.



304 am EST sun Dec 4 2016

... Accumulating snow expected this afternoon and evening...

A mixture of rain and snow will spread rapidly northeast this
afternoon... becoming all snow as it does so. Periods of snow will
continue into this evening before tapering off during the early
morning hours on Monday. Total snow accumulation of one to three
inches is expected... with the highest amounts centered across
interior areas.

Motorists are urged to use caution this afternoon and tonight as
slushy snow accumulations are expected... especially on secondary
and untreated Road surfaces.